Dobrodošli na spletni strani vremenske postaje Senovo. Vse informacije so informativnega značaja, saj vremenska postaja ni del državne mreže meteoroloških postaj. AKTUALNIH OBVESTIL NI.


Posebna pozornost v zvezi z vremenskimi dogajanji ni potrebna.    Posebna pozornost v zvezi z vremenskimi dogajanji ni potrebna.

Pogled proti Armezu več informacij Pogled proti Armezu


Bohor več informacij Bohor


Radar strel več informacij blitzortung!


Radar padavin več informacij rain snow radar


Obiščite še:

Template documentation
and downloads

And another site



Weather Underground, zgodovina - Tekstovno

Dnevni povzetek za Januar 16, 2018 Enote:  Metrično    Angleško   Obe
« Predhodni Dan
Naslednji Dan »
Dnevni Tedenski Mesečni Letni Po meri
  Višja: Nižja: Povprečje:
Temperatura: -17.8 °C -18.3 °C -15.5 °C
Točka rosišča: -17.8 °C -19.5 °C -17.2 °C
Vlažnost: Humidity % 67 % 81 %
Hitrost vetra: 0 km/h 0 km/h 6 km/h
Sunki vetra: 0 km/h - -
Veter:- - SW
Zračni tlak: 0 hPa 33856.6 hPa -
Padavine: 7.62 mm    
Historical Graphs
 
 
Tabelarni podarki za Januar 16, 2018
Čas Temperatura Točka rosišča Zračni tlak Veter Hitrost vetra Sunki vetra Vlažnost Intenziteta padavin (urna)
-17.8 °C -17.8 °C 0 hPa Calm     Humidity % 0 mm
00:12 -17.8 °C -19.5 °C 34371.3 hPa SW 2.3 km/h 5.1 km/h 80 % 0 mm
00:20 -17.8 °C -19.5 °C 34371.3 hPa SW 2.6 km/h 6.4 km/h 80 % 0 mm
00:58 -17.8 °C -19.4 °C 34337.4 hPa SSW 1 km/h 5.6 km/h 81 % 0 mm
01:03 -17.8 °C -19.4 °C 34337.4 hPa SW 3.1 km/h 8.9 km/h 81 % 0 mm
01:09 -17.8 °C -19.4 °C 34337.4 hPa SW 4.7 km/h 8.9 km/h 81 % 0 mm
01:35 -17.9 °C -19.4 °C 34337.4 hPa West 5.5 km/h 8.9 km/h 82 % 0 mm
01:41 -17.9 °C -19.4 °C 34337.4 hPa WSW 5.1 km/h 8.9 km/h 82 % 0 mm
01:55 -17.9 °C -19.4 °C 34303.6 hPa WSW 0.3 km/h 5.6 km/h 82 % 0 mm
02:03 -17.9 °C -19.3 °C 34303.6 hPa West 4.3 km/h 9.8 km/h 83 % 0 mm
02:10 -17.9 °C -19.3 °C 34303.6 hPa West 5.6 km/h 9.8 km/h 83 % 0 mm
02:19 -17.9 °C -19.3 °C 34303.6 hPa WSW 2.3 km/h 6.9 km/h 83 % 0 mm
02:26 -17.9 °C -19.3 °C 34303.6 hPa West 3.1 km/h 8 km/h 83 % 0 mm
02:31 -17.9 °C -19.3 °C 34303.6 hPa West 2.6 km/h 7.6 km/h 83 % 0 mm
02:42 -17.9 °C -19.3 °C 34269.7 hPa Calm     83 % 0 mm
02:50 -17.9 °C -19.2 °C 34269.7 hPa ENE 0.3 km/h 3.4 km/h 84 % 0 mm
02:57 -17.9 °C -19.2 °C 34269.7 hPa ENE 0.5 km/h 3.4 km/h 84 % 0 mm
03:07 -17.9 °C -19.2 °C 34269.7 hPa Calm     84 % 0 mm
03:21 -17.9 °C -19.2 °C 34269.7 hPa SW 4.7 km/h 6.9 km/h 84 % 0 mm
03:27 -17.9 °C -19.2 °C 34235.8 hPa WSW 4.2 km/h 7.6 km/h 84 % 0 mm
03:44 -17.9 °C -19.2 °C 34235.8 hPa SW 0.5 km/h 4.2 km/h 84 % 0 mm
03:53 -17.9 °C -19.1 °C 34235.8 hPa WSW 2.9 km/h 8 km/h 85 % 0 mm
04:01 -17.9 °C -19.2 °C 34235.8 hPa West 4.2 km/h 8.9 km/h 85 % 0 mm
04:10 -17.9 °C -19.2 °C 34235.8 hPa Calm   6.9 km/h 85 % 0 mm
04:23 -17.9 °C -19.1 °C 34235.8 hPa SSW 1.6 km/h 6.4 km/h 85 % 0 mm
04:42 -17.9 °C -19.1 °C 34235.8 hPa SSW 1 km/h 6.4 km/h 85 % 0 mm
04:49 -17.9 °C -19.1 °C 34235.8 hPa SSW 5.1 km/h 8.9 km/h 86 % 0 mm
04:56 -17.9 °C -19.1 °C 34198.6 hPa SW 6.9 km/h 9.8 km/h 86 % 0 mm
05:02 -17.9 °C -19.1 °C 34198.6 hPa SW 7.7 km/h 9.8 km/h 86 % 0 mm
05:19 -17.9 °C -19.1 °C 34164.7 hPa SW 6 km/h 8.9 km/h 86 % 0 mm
05:42 -17.9 °C -19 °C 34164.7 hPa South 1.6 km/h 6.9 km/h 87 % 0 mm
05:49 -17.9 °C -18.9 °C 34164.7 hPa SSW 3.7 km/h 6.9 km/h 87 % 0 mm
06:02 -17.9 °C -18.9 °C 34164.7 hPa Calm     87 % 0 mm
06:15 -17.9 °C -19 °C 34164.7 hPa West 1 km/h 6.9 km/h 87 % 0 mm
06:21 -17.9 °C -19 °C 34164.7 hPa Calm     87 % 0 mm
06:26 -17.9 °C -19 °C 34130.9 hPa Calm     87 % 0 mm
06:36 -17.9 °C -19 °C 34130.9 hPa SW 2.3 km/h 8.9 km/h 87 % 7.62 mm
06:41 -17.9 °C -19 °C 34130.9 hPa SSW 5.6 km/h 9.3 km/h 87 % 7.62 mm
07:04 -17.9 °C -18.9 °C 34130.9 hPa SW 2.9 km/h 8 km/h 88 % 7.62 mm
07:05 -17.9 °C -18.9 °C 34130.9 hPa SW 3.4 km/h 8 km/h 88 % 7.62 mm
07:12 -17.9 °C -18.9 °C 34130.9 hPa WSW 5.5 km/h 8.9 km/h 88 % 7.62 mm
07:25 -18.1 °C -19 °C 34130.9 hPa West 6 km/h 10.3 km/h 88 % 7.62 mm
07:39 -18.2 °C -19.1 °C 34097 hPa WSW 2.1 km/h 6.4 km/h 88 % 0 mm
07:45 -18.3 °C -19.2 °C 34097 hPa Calm     88 % 0 mm
08:11 -18.3 °C -19.3 °C 34130.9 hPa Calm     88 % 0 mm
08:36 -18.1 °C -19 °C 34097 hPa SSW 1 km/h 6.9 km/h 88 % 0 mm
08:51 -17.9 °C -18.8 °C 34097 hPa SW 1 km/h 5.6 km/h 89 % 0 mm
08:59 -17.8 °C -18.7 °C 34097 hPa SW 1.6 km/h 5.6 km/h 89 % 0 mm
09:05 -17.8 °C -18.7 °C 34097 hPa SW 0.3 km/h 4.2 km/h 89 % 0 mm
09:15 -17.7 °C -18.6 °C 34063.2 hPa South 1 km/h 5.1 km/h 89 % 0 mm
09:31 -17.5 °C -18.3 °C 34097 hPa SE 1.8 km/h 8.9 km/h 90 % 0 mm
09:50 -17.4 °C -18.2 °C 34097 hPa WNW 0.3 km/h 4.2 km/h 90 % 0 mm
09:56 -17.4 °C -18.2 °C 34097 hPa NNW 1 km/h 6.4 km/h 90 % 0 mm
10:01 -17.4 °C -18.2 °C 34097 hPa West 2.3 km/h 7.6 km/h 90 % 0 mm
10:12 -17.2 °C -17.9 °C 34097 hPa WSW 9 km/h 15.6 km/h 90 % 0 mm
10:18 -17 °C -17.8 °C 34097 hPa SW 7.6 km/h 14 km/h 90 % 7.62 mm
10:25 -16.9 °C -17.7 °C 34097 hPa SSW 6.9 km/h 14.5 km/h 90 % 7.62 mm
10:32 -16.7 °C -17.4 °C 34097 hPa SW 7.2 km/h 14 km/h 90 % 7.62 mm
10:38 -16.5 °C -17.2 °C 34097 hPa SW 6.9 km/h 14 km/h 91 % 7.62 mm
10:55 -16.1 °C -16.8 °C 34063.2 hPa SW 9.8 km/h 14.5 km/h 91 % 7.62 mm
11:08 -15.7 °C -16.4 °C 34029.3 hPa SW 10.6 km/h 16.3 km/h 91 % 7.62 mm
11:23 -15.5 °C -16.2 °C 34029.3 hPa SW 9 km/h 12.7 km/h 91 % 0 mm
11:37 -15.3 °C -16 °C 33992.1 hPa SSW 8 km/h 11.1 km/h 91 % 0 mm
11:49 -14.9 °C -15.7 °C 34063.2 hPa South 5.5 km/h 10.3 km/h 91 % 0 mm
11:55 -14.7 °C -15.4 °C 34063.2 hPa SSE 3.7 km/h 14.5 km/h 91 % 0 mm
12:00 -14.6 °C -15.2 °C 34029.3 hPa South 5.6 km/h 14.5 km/h 92 % 0 mm
12:11 -14.3 °C -15.1 °C 33992.1 hPa SSW 6.9 km/h 12.7 km/h 91 % 0 mm
12:17 -14.2 °C -14.9 °C 33992.1 hPa SSW 3.1 km/h 9.3 km/h 91 % 0 mm
12:39 -13.7 °C -14.5 °C 33958.2 hPa SW 9.3 km/h 16.9 km/h 90 % 0 mm
12:45 -13.7 °C -14.5 °C 33958.2 hPa SW 6.8 km/h 12.7 km/h 90 % 0 mm
13:04 -13.4 °C -14.4 °C 33958.2 hPa West 7.6 km/h 27.2 km/h 89 % 0 mm
13:16 -13.4 °C -14.5 °C 33958.2 hPa West 3.9 km/h 11.1 km/h 87 % 0 mm
13:22 -13.4 °C -14.6 °C 33958.2 hPa SSW 3.9 km/h 9.8 km/h 87 % 0 mm
13:30 -13.4 °C -14.5 °C 33958.2 hPa SSE 3.7 km/h 14 km/h 87 % 0 mm
13:35 -13.3 °C -14.6 °C 33958.2 hPa SSW 7.6 km/h 16.3 km/h 86 % 0 mm
13:42 -13.3 °C -14.7 °C 33958.2 hPa WSW 7.2 km/h 14 km/h 85 % 0 mm
13:47 -13.3 °C -14.6 °C 33958.2 hPa West 6.9 km/h 15 km/h 85 % 0 mm
13:54 -13.3 °C -14.6 °C 33958.2 hPa WNW 6 km/h 15 km/h 85 % 0 mm
14:05 -13.2 °C -14.6 °C 33958.2 hPa South 8.9 km/h 20.9 km/h 84 % 0 mm
14:10 -13.2 °C -14.7 °C 33958.2 hPa SSW 12.2 km/h 33.6 km/h 83 % 0 mm
14:21 -13.1 °C -14.7 °C 33958.2 hPa SW 12.9 km/h 30.7 km/h 82 % 0 mm
14:37 -13 °C -14.8 °C 33924.3 hPa SW 8.9 km/h 22.5 km/h 80 % 0 mm
14:43 -12.9 °C -14.8 °C 33890.5 hPa West 11.4 km/h 27.7 km/h 79 % 0 mm
14:50 -12.9 °C -14.9 °C 33890.5 hPa West 11.6 km/h 27.7 km/h 78 % 0 mm
14:57 -12.9 °C -15 °C 33890.5 hPa SW 10.9 km/h 32.3 km/h 77 % 0 mm
15:03 -12.9 °C -15.1 °C 33890.5 hPa SW 10.1 km/h 32.3 km/h 76 % 0 mm
15:11 -12.9 °C -15.2 °C 33890.5 hPa WSW 10.6 km/h 20.3 km/h 75 % 0 mm
15:30 -13 °C -15.5 °C 33890.5 hPa WSW 11.4 km/h 22.5 km/h 73 % 0 mm
15:43 -13.1 °C -15.7 °C 33890.5 hPa West 8.9 km/h 22 km/h 72 % 0 mm
15:50 -13.1 °C -15.7 °C 33890.5 hPa West 10.6 km/h 22 km/h 72 % 0 mm
16:04 -13.2 °C -15.9 °C 33890.5 hPa West 11.6 km/h 27.2 km/h 71 % 0 mm
16:11 -13.2 °C -16.1 °C 33890.5 hPa West 13.7 km/h 27.2 km/h 70 % 0 mm
16:26 -13.3 °C -16.2 °C 33890.5 hPa West 15.8 km/h 39.4 km/h 70 % 0 mm
16:47 -13.4 °C -16.2 °C 33890.5 hPa WSW 11.9 km/h 29.5 km/h 71 % 0 mm
17:03 -13.5 °C -16.2 °C 33856.6 hPa SW 9 km/h 16.9 km/h 72 % 0 mm
17:20 -13.6 °C -16.2 °C 33890.5 hPa SSW 6 km/h 20.3 km/h 72 % 0 mm
17:27 -13.6 °C -16.2 °C 33856.6 hPa SSW 5.6 km/h 20.3 km/h 73 % 0 mm
17:38 -13.6 °C -16.2 °C 33856.6 hPa SSW 10.3 km/h 18.7 km/h 73 % 0 mm
17:55 -13.6 °C -16 °C 33890.5 hPa South 10.9 km/h 20.3 km/h 74 % 0 mm
18:05 -13.6 °C -16 °C 33890.5 hPa South 8.9 km/h 16.9 km/h 74 % 0 mm
18:16 -13.6 °C -16 °C 33856.6 hPa SSW 5.5 km/h 16.9 km/h 74 % 0 mm
18:23 -13.6 °C -16 °C 33856.6 hPa SSW 10.1 km/h 16.9 km/h 74 % 0 mm
18:28 -13.6 °C -16 °C 33856.6 hPa SSW 7.6 km/h 16.3 km/h 74 % 0 mm
18:36 -13.6 °C -16 °C 33856.6 hPa SW 8.9 km/h 25.4 km/h 74 % 0 mm
18:41 -13.5 °C -15.8 °C 33856.6 hPa SW 10.9 km/h 25.4 km/h 75 % 0 mm
19:00 -13.4 °C -15.8 °C 33856.6 hPa SW 8.9 km/h 19.6 km/h 74 % 0 mm
19:09 -13.4 °C -15.8 °C 33856.6 hPa SW 11.1 km/h 22.5 km/h 74 % 0 mm
19:32 -13.4 °C -15.8 °C 33856.6 hPa SW 6.3 km/h 16.3 km/h 74 % 0 mm
20:02 -13.2 °C -15.9 °C 33856.6 hPa WSW 10.1 km/h 35.2 km/h 72 % 0 mm
20:07 -13.2 °C -15.9 °C 33856.6 hPa WSW 8.5 km/h 35.2 km/h 72 % 0 mm
20:15 -13.2 °C -15.8 °C 33856.6 hPa West 9 km/h 19.2 km/h 72 % 0 mm
20:49 -13.2 °C -16 °C 33856.6 hPa West 5.1 km/h 26.2 km/h 70 % 0 mm
21:01 -13.2 °C -16 °C 33890.5 hPa WSW 10.6 km/h 22 km/h 70 % 0 mm
21:12 -13.2 °C -16.2 °C 33890.5 hPa WSW 6.4 km/h 14 km/h 69 % 0 mm
21:31 -13.3 °C -16.2 °C 33890.5 hPa NW 8 km/h 23.8 km/h 69 % 0 mm
21:36 -13.3 °C -16.2 °C 33890.5 hPa South 6 km/h 19.6 km/h 69 % 0 mm
21:57 -13.2 °C -16.2 °C 33890.5 hPa WSW 8.2 km/h 22.5 km/h 69 % 0 mm
22:17 -13.2 °C -16.2 °C 33890.5 hPa WNW 5.5 km/h 16.3 km/h 69 % 0 mm
22:25 -13.2 °C -16.2 °C 33890.5 hPa WNW 8.5 km/h 26.2 km/h 69 % 0 mm
22:31 -13.2 °C -16.2 °C 33890.5 hPa WSW 8.5 km/h 20.9 km/h 69 % 0 mm
22:42 -13.2 °C -16.3 °C 33890.5 hPa SW 11.6 km/h 22.5 km/h 68 % 0 mm
22:53 -13.2 °C -16.3 °C 33890.5 hPa SW 11.6 km/h 30.7 km/h 68 % 0 mm
23:23 -13.2 °C -16.4 °C 33890.5 hPa SW 8.9 km/h 16.3 km/h 67 % 0 mm
23:31 -13.2 °C -16.4 °C 33856.6 hPa WSW 11.6 km/h 33.2 km/h 67 % 0 mm
23:37 -13.2 °C -16.4 °C 33856.6 hPa SW 8.5 km/h 16.9 km/h 67 % 0 mm
23:48 -13.2 °C -16.4 °C 33856.6 hPa SW 9 km/h 20.3 km/h 67 % 0 mm
23:56 -13.3 °C -16.5 °C 33856.6 hPa SW 8.9 km/h 22.5 km/h 67 % 0 mm
Vremenska postaja Senovo
Podatki zbrani iz Weather Underground - 2 mb

Script developed by  Jim McMurry - jmcmurry@mwt.net Adapted for the template by  Wim van der Kuil - Leuven-Template.eu

Vremenski podatki so objavljeni na:

European Weather Network

WeatherCloud

Weather Underground

AWEKAS

HAMweather, WeatherForYou, PWS Weather

MapView

Geostik

Slovenia weather network

Oprema, ki se uporablja:

Vremenski program
Cumulus

Vremenski server
Asus

Cumulus

Asus